sensor_id;sensor_type;location;lat;lon;timestamp;P1;durP1;ratioP1;P2;durP2;ratioP2
73428;SDS011;61643;49.564;17.412;2023-04-24T00:00:11;5.18;;;2.80;;
73428;SDS011;61643;49.564;17.412;2023-04-24T00:02:40;5.68;;;2.78;;
73428;SDS011;61643;49.564;17.412;2023-04-24T00:05:13;6.32;;;2.95;;
73428;SDS011;61643;49.564;17.412;2023-04-24T00:07:41;4.55;;;3.03;;
73428;SDS011;61643;49.564;17.412;2023-04-24T00:10:07;5.82;;;3.42;;
73428;SDS011;61643;49.564;17.412;2023-04-24T00:12:34;5.90;;;3.08;;
73428;SDS011;61643;49.564;17.412;2023-04-24T00:15:01;5.05;;;3.15;;
73428;SDS011;61643;49.564;17.412;2023-04-24T00:17:28;4.05;;;2.88;;
73428;SDS011;61643;49.564;17.412;2023-04-24T00:19:54;4.75;;;2.92;;
73428;SDS011;61643;49.564;17.412;2023-04-24T00:22:30;4.05;;;3.00;;
73428;SDS011;61643;49.564;17.412;2023-04-24T00:24:56;5.07;;;2.97;;
73428;SDS011;61643;49.564;17.412;2023-04-24T00:27:23;5.03;;;3.05;;
73428;SDS011;61643;49.564;17.412;2023-04-24T00:29:49;5.15;;;3.10;;
73428;SDS011;61643;49.564;17.412;2023-04-24T00:32:15;3.72;;;2.95;;
73428;SDS011;61643;49.564;17.412;2023-04-24T00:34:41;8.02;;;3.38;;
73428;SDS011;61643;49.564;17.412;2023-04-24T00:37:07;5.95;;;3.28;;
73428;SDS011;61643;49.564;17.412;2023-04-24T00:39:33;4.03;;;3.00;;
73428;SDS011;61643;49.564;17.412;2023-04-24T00:41:59;4.13;;;3.05;;
73428;SDS011;61643;49.564;17.412;2023-04-24T00:44:27;5.03;;;3.00;;
73428;SDS011;61643;49.564;17.412;2023-04-24T00:46:53;4.38;;;2.88;;
73428;SDS011;61643;49.564;17.412;2023-04-24T00:49:20;4.05;;;2.92;;
73428;SDS011;61643;49.564;17.412;2023-04-24T00:51:47;6.15;;;3.35;;
73428;SDS011;61643;49.564;17.412;2023-04-24T00:54:14;3.85;;;2.70;;
73428;SDS011;61643;49.564;17.412;2023-04-24T00:56:41;5.88;;;3.35;;
73428;SDS011;61643;49.564;17.412;2023-04-24T00:59:08;4.88;;;2.92;;
73428;SDS011;61643;49.564;17.412;2023-04-24T01:01:34;5.20;;;2.83;;
73428;SDS011;61643;49.564;17.412;2023-04-24T01:04:01;5.18;;;3.33;;
73428;SDS011;61643;49.564;17.412;2023-04-24T01:06:28;4.72;;;2.95;;
73428;SDS011;61643;49.564;17.412;2023-04-24T01:08:57;5.45;;;3.20;;
73428;SDS011;61643;49.564;17.412;2023-04-24T01:11:24;6.68;;;3.13;;
73428;SDS011;61643;49.564;17.412;2023-04-24T01:13:51;7.38;;;3.00;;
73428;SDS011;61643;49.564;17.412;2023-04-24T01:16:17;3.78;;;3.22;;
73428;SDS011;61643;49.564;17.412;2023-04-24T01:18:46;4.38;;;3.30;;
73428;SDS011;61643;49.564;17.412;2023-04-24T01:21:13;7.05;;;3.40;;
73428;SDS011;61643;49.564;17.412;2023-04-24T01:23:44;6.25;;;3.13;;
73428;SDS011;61643;49.564;17.412;2023-04-24T01:26:11;4.88;;;3.30;;
73428;SDS011;61643;49.564;17.412;2023-04-24T01:28:37;5.47;;;3.78;;
73428;SDS011;61643;49.564;17.412;2023-04-24T01:31:03;4.60;;;3.28;;
73428;SDS011;61643;49.564;17.412;2023-04-24T01:33:29;5.38;;;3.15;;
73428;SDS011;61643;49.564;17.412;2023-04-24T01:35:56;6.90;;;3.42;;
73428;SDS011;61643;49.564;17.412;2023-04-24T01:38:23;7.35;;;3.30;;
73428;SDS011;61643;49.564;17.412;2023-04-24T01:40:49;5.85;;;3.33;;
73428;SDS011;61643;49.564;17.412;2023-04-24T01:43:15;5.95;;;3.40;;
73428;SDS011;61643;49.564;17.412;2023-04-24T01:45:41;5.05;;;3.20;;
73428;SDS011;61643;49.564;17.412;2023-04-24T01:48:07;5.18;;;3.50;;
73428;SDS011;61643;49.564;17.412;2023-04-24T01:50:34;6.45;;;3.47;;
73428;SDS011;61643;49.564;17.412;2023-04-24T01:53:00;4.38;;;3.20;;
73428;SDS011;61643;49.564;17.412;2023-04-24T01:55:26;4.25;;;3.10;;
73428;SDS011;61643;49.564;17.412;2023-04-24T01:57:52;5.55;;;3.78;;
73428;SDS011;61643;49.564;17.412;2023-04-24T02:00:21;4.47;;;3.15;;
73428;SDS011;61643;49.564;17.412;2023-04-24T02:02:49;5.35;;;3.17;;
73428;SDS011;61643;49.564;17.412;2023-04-24T02:05:15;5.75;;;3.55;;
73428;SDS011;61643;49.564;17.412;2023-04-24T02:07:41;6.15;;;3.15;;
73428;SDS011;61643;49.564;17.412;2023-04-24T02:10:07;5.40;;;3.38;;
73428;SDS011;61643;49.564;17.412;2023-04-24T02:12:34;5.55;;;3.38;;
73428;SDS011;61643;49.564;17.412;2023-04-24T02:15:00;5.20;;;3.17;;
73428;SDS011;61643;49.564;17.412;2023-04-24T02:17:26;4.32;;;3.22;;
73428;SDS011;61643;49.564;17.412;2023-04-24T02:19:52;6.47;;;3.53;;
73428;SDS011;61643;49.564;17.412;2023-04-24T02:22:18;3.40;;;3.05;;
73428;SDS011;61643;49.564;17.412;2023-04-24T02:24:44;5.03;;;3.22;;
73428;SDS011;61643;49.564;17.412;2023-04-24T02:27:10;5.00;;;3.58;;
73428;SDS011;61643;49.564;17.412;2023-04-24T02:29:37;4.25;;;3.20;;
73428;SDS011;61643;49.564;17.412;2023-04-24T02:32:03;3.42;;;2.90;;
73428;SDS011;61643;49.564;17.412;2023-04-24T02:34:28;4.15;;;3.03;;
73428;SDS011;61643;49.564;17.412;2023-04-24T02:36:55;6.93;;;3.60;;
73428;SDS011;61643;49.564;17.412;2023-04-24T02:39:21;5.55;;;3.47;;
73428;SDS011;61643;49.564;17.412;2023-04-24T02:41:47;5.20;;;3.47;;
73428;SDS011;61643;49.564;17.412;2023-04-24T02:44:13;7.30;;;3.40;;
73428;SDS011;61643;49.564;17.412;2023-04-24T02:46:38;5.07;;;3.45;;
73428;SDS011;61643;49.564;17.412;2023-04-24T02:49:06;5.85;;;3.70;;
73428;SDS011;61643;49.564;17.412;2023-04-24T02:51:32;5.28;;;3.50;;
73428;SDS011;61643;49.564;17.412;2023-04-24T02:53:58;4.13;;;3.33;;
73428;SDS011;61643;49.564;17.412;2023-04-24T02:56:24;6.53;;;3.22;;
73428;SDS011;61643;49.564;17.412;2023-04-24T02:58:50;4.53;;;3.05;;
73428;SDS011;61643;49.564;17.412;2023-04-24T03:01:16;4.68;;;3.45;;
73428;SDS011;61643;49.564;17.412;2023-04-24T03:03:43;5.25;;;3.42;;
73428;SDS011;61643;49.564;17.412;2023-04-24T03:06:09;4.43;;;3.40;;
73428;SDS011;61643;49.564;17.412;2023-04-24T03:08:35;6.38;;;3.70;;
73428;SDS011;61643;49.564;17.412;2023-04-24T03:11:02;6.63;;;3.70;;
73428;SDS011;61643;49.564;17.412;2023-04-24T03:13:29;6.03;;;3.42;;
73428;SDS011;61643;49.564;17.412;2023-04-24T03:15:55;5.13;;;3.92;;
73428;SDS011;61643;49.564;17.412;2023-04-24T03:18:20;5.50;;;3.60;;
73428;SDS011;61643;49.564;17.412;2023-04-24T03:20:46;5.60;;;3.63;;
73428;SDS011;61643;49.564;17.412;2023-04-24T03:23:13;5.53;;;3.70;;
73428;SDS011;61643;49.564;17.412;2023-04-24T03:25:39;7.30;;;3.53;;
73428;SDS011;61643;49.564;17.412;2023-04-24T03:28:05;6.60;;;3.92;;
73428;SDS011;61643;49.564;17.412;2023-04-24T03:30:31;5.50;;;3.65;;
73428;SDS011;61643;49.564;17.412;2023-04-24T03:32:57;5.68;;;3.90;;
73428;SDS011;61643;49.564;17.412;2023-04-24T03:35:23;6.13;;;4.20;;
73428;SDS011;61643;49.564;17.412;2023-04-24T03:37:49;5.10;;;3.90;;
73428;SDS011;61643;49.564;17.412;2023-04-24T03:40:15;4.43;;;3.70;;
73428;SDS011;61643;49.564;17.412;2023-04-24T03:42:41;7.43;;;4.07;;
73428;SDS011;61643;49.564;17.412;2023-04-24T03:45:07;5.70;;;3.95;;
73428;SDS011;61643;49.564;17.412;2023-04-24T03:47:34;4.57;;;3.65;;
73428;SDS011;61643;49.564;17.412;2023-04-24T03:50:00;7.13;;;4.55;;
73428;SDS011;61643;49.564;17.412;2023-04-24T03:52:26;6.00;;;4.03;;
73428;SDS011;61643;49.564;17.412;2023-04-24T03:54:52;5.78;;;4.50;;
73428;SDS011;61643;49.564;17.412;2023-04-24T03:57:17;7.75;;;4.65;;
73428;SDS011;61643;49.564;17.412;2023-04-24T03:59:43;12.82;;;5.55;;
73428;SDS011;61643;49.564;17.412;2023-04-24T04:02:10;6.25;;;4.68;;
73428;SDS011;61643;49.564;17.412;2023-04-24T04:04:36;6.68;;;4.88;;
73428;SDS011;61643;49.564;17.412;2023-04-24T04:07:01;6.60;;;4.80;;
73428;SDS011;61643;49.564;17.412;2023-04-24T04:09:28;7.70;;;4.93;;
73428;SDS011;61643;49.564;17.412;2023-04-24T04:11:54;8.38;;;5.38;;
73428;SDS011;61643;49.564;17.412;2023-04-24T04:14:21;6.72;;;4.43;;
73428;SDS011;61643;49.564;17.412;2023-04-24T04:16:47;8.05;;;4.65;;
73428;SDS011;61643;49.564;17.412;2023-04-24T04:19:13;7.32;;;4.68;;
73428;SDS011;61643;49.564;17.412;2023-04-24T04:21:39;10.30;;;4.60;;
73428;SDS011;61643;49.564;17.412;2023-04-24T04:24:05;7.30;;;4.85;;
73428;SDS011;61643;49.564;17.412;2023-04-24T04:26:32;7.07;;;4.50;;
73428;SDS011;61643;49.564;17.412;2023-04-24T04:28:59;6.75;;;4.55;;
73428;SDS011;61643;49.564;17.412;2023-04-24T04:31:29;7.07;;;4.53;;
73428;SDS011;61643;49.564;17.412;2023-04-24T04:33:56;7.05;;;4.45;;
73428;SDS011;61643;49.564;17.412;2023-04-24T04:36:22;5.90;;;4.40;;
73428;SDS011;61643;49.564;17.412;2023-04-24T04:38:49;6.70;;;4.15;;
73428;SDS011;61643;49.564;17.412;2023-04-24T04:41:15;6.30;;;4.40;;
73428;SDS011;61643;49.564;17.412;2023-04-24T04:43:43;7.57;;;4.80;;
73428;SDS011;61643;49.564;17.412;2023-04-24T04:46:09;6.07;;;4.80;;
73428;SDS011;61643;49.564;17.412;2023-04-24T04:48:36;7.78;;;4.57;;
73428;SDS011;61643;49.564;17.412;2023-04-24T04:51:03;8.38;;;4.95;;
73428;SDS011;61643;49.564;17.412;2023-04-24T04:53:29;6.95;;;4.80;;
73428;SDS011;61643;49.564;17.412;2023-04-24T04:55:55;7.45;;;4.80;;
73428;SDS011;61643;49.564;17.412;2023-04-24T04:58:21;25.48;;;14.60;;
73428;SDS011;61643;49.564;17.412;2023-04-24T05:00:47;10.55;;;7.65;;
73428;SDS011;61643;49.564;17.412;2023-04-24T05:03:14;8.50;;;7.03;;
73428;SDS011;61643;49.564;17.412;2023-04-24T05:05:40;9.38;;;6.45;;
73428;SDS011;61643;49.564;17.412;2023-04-24T05:08:07;9.45;;;6.20;;
73428;SDS011;61643;49.564;17.412;2023-04-24T05:10:34;7.30;;;5.60;;
73428;SDS011;61643;49.564;17.412;2023-04-24T05:13:00;9.10;;;6.25;;
73428;SDS011;61643;49.564;17.412;2023-04-24T05:15:26;10.35;;;7.55;;
73428;SDS011;61643;49.564;17.412;2023-04-24T05:17:52;12.68;;;5.82;;
73428;SDS011;61643;49.564;17.412;2023-04-24T05:20:18;8.52;;;4.97;;
73428;SDS011;61643;49.564;17.412;2023-04-24T05:22:44;7.75;;;5.40;;
73428;SDS011;61643;49.564;17.412;2023-04-24T05:25:11;8.68;;;5.57;;
73428;SDS011;61643;49.564;17.412;2023-04-24T05:27:38;7.07;;;4.88;;
73428;SDS011;61643;49.564;17.412;2023-04-24T05:30:04;9.80;;;5.70;;
73428;SDS011;61643;49.564;17.412;2023-04-24T05:32:31;8.02;;;6.07;;
73428;SDS011;61643;49.564;17.412;2023-04-24T05:34:57;7.47;;;5.85;;
73428;SDS011;61643;49.564;17.412;2023-04-24T05:37:23;7.30;;;5.63;;
73428;SDS011;61643;49.564;17.412;2023-04-24T05:39:49;12.10;;;6.43;;
73428;SDS011;61643;49.564;17.412;2023-04-24T05:42:15;10.25;;;6.30;;
73428;SDS011;61643;49.564;17.412;2023-04-24T05:44:41;8.40;;;5.78;;
73428;SDS011;61643;49.564;17.412;2023-04-24T05:47:07;8.90;;;6.05;;
73428;SDS011;61643;49.564;17.412;2023-04-24T05:49:35;7.97;;;6.15;;
73428;SDS011;61643;49.564;17.412;2023-04-24T05:52:01;9.57;;;6.22;;
73428;SDS011;61643;49.564;17.412;2023-04-24T05:54:29;9.25;;;6.22;;
73428;SDS011;61643;49.564;17.412;2023-04-24T05:56:55;9.02;;;6.32;;
73428;SDS011;61643;49.564;17.412;2023-04-24T05:59:21;10.00;;;6.32;;
73428;SDS011;61643;49.564;17.412;2023-04-24T06:01:47;9.82;;;6.47;;
73428;SDS011;61643;49.564;17.412;2023-04-24T06:04:13;8.80;;;6.00;;
73428;SDS011;61643;49.564;17.412;2023-04-24T06:06:39;8.55;;;6.40;;
73428;SDS011;61643;49.564;17.412;2023-04-24T06:09:05;8.65;;;6.28;;
73428;SDS011;61643;49.564;17.412;2023-04-24T06:11:32;7.13;;;5.78;;
73428;SDS011;61643;49.564;17.412;2023-04-24T06:13:58;10.85;;;6.55;;
73428;SDS011;61643;49.564;17.412;2023-04-24T06:16:24;8.48;;;6.10;;
73428;SDS011;61643;49.564;17.412;2023-04-24T06:18:50;8.70;;;6.20;;
73428;SDS011;61643;49.564;17.412;2023-04-24T06:21:16;9.05;;;6.00;;
73428;SDS011;61643;49.564;17.412;2023-04-24T06:23:42;8.18;;;6.00;;
73428;SDS011;61643;49.564;17.412;2023-04-24T06:26:08;8.43;;;6.03;;
73428;SDS011;61643;49.564;17.412;2023-04-24T06:28:34;7.97;;;5.82;;
73428;SDS011;61643;49.564;17.412;2023-04-24T06:31:00;11.45;;;7.53;;
73428;SDS011;61643;49.564;17.412;2023-04-24T06:33:26;13.77;;;8.80;;
73428;SDS011;61643;49.564;17.412;2023-04-24T06:35:52;16.13;;;10.25;;
73428;SDS011;61643;49.564;17.412;2023-04-24T06:38:18;15.82;;;10.30;;
73428;SDS011;61643;49.564;17.412;2023-04-24T06:40:44;13.68;;;8.77;;
73428;SDS011;61643;49.564;17.412;2023-04-24T06:43:10;13.15;;;7.57;;
73428;SDS011;61643;49.564;17.412;2023-04-24T06:45:37;11.32;;;6.93;;
73428;SDS011;61643;49.564;17.412;2023-04-24T06:48:05;15.13;;;9.35;;
73428;SDS011;61643;49.564;17.412;2023-04-24T06:50:31;11.85;;;8.55;;
73428;SDS011;61643;49.564;17.412;2023-04-24T06:52:57;13.00;;;7.70;;
73428;SDS011;61643;49.564;17.412;2023-04-24T06:55:22;13.00;;;8.57;;
73428;SDS011;61643;49.564;17.412;2023-04-24T06:57:48;13.55;;;8.13;;
73428;SDS011;61643;49.564;17.412;2023-04-24T07:00:14;8.55;;;7.00;;
73428;SDS011;61643;49.564;17.412;2023-04-24T07:02:41;9.07;;;6.63;;
73428;SDS011;61643;49.564;17.412;2023-04-24T07:05:06;9.27;;;6.18;;
73428;SDS011;61643;49.564;17.412;2023-04-24T07:07:33;10.88;;;6.80;;
73428;SDS011;61643;49.564;17.412;2023-04-24T07:10:00;11.00;;;6.53;;
73428;SDS011;61643;49.564;17.412;2023-04-24T07:12:26;10.75;;;7.28;;
73428;SDS011;61643;49.564;17.412;2023-04-24T07:14:52;11.38;;;7.22;;
73428;SDS011;61643;49.564;17.412;2023-04-24T07:17:17;12.38;;;6.70;;
73428;SDS011;61643;49.564;17.412;2023-04-24T07:19:43;9.73;;;6.65;;
73428;SDS011;61643;49.564;17.412;2023-04-24T07:22:09;10.85;;;7.22;;
73428;SDS011;61643;49.564;17.412;2023-04-24T07:24:43;9.70;;;6.63;;
73428;SDS011;61643;49.564;17.412;2023-04-24T07:27:09;8.10;;;5.88;;
73428;SDS011;61643;49.564;17.412;2023-04-24T07:29:35;9.20;;;6.30;;
73428;SDS011;61643;49.564;17.412;2023-04-24T07:32:01;8.45;;;6.07;;
73428;SDS011;61643;49.564;17.412;2023-04-24T07:34:27;8.07;;;5.90;;
73428;SDS011;61643;49.564;17.412;2023-04-24T07:36:53;10.00;;;6.85;;
73428;SDS011;61643;49.564;17.412;2023-04-24T07:39:19;12.25;;;6.55;;
73428;SDS011;61643;49.564;17.412;2023-04-24T07:41:45;12.13;;;7.32;;
73428;SDS011;61643;49.564;17.412;2023-04-24T07:44:11;11.85;;;7.00;;
73428;SDS011;61643;49.564;17.412;2023-04-24T07:46:38;12.82;;;7.57;;
73428;SDS011;61643;49.564;17.412;2023-04-24T07:49:04;12.93;;;8.07;;
73428;SDS011;61643;49.564;17.412;2023-04-24T07:51:31;12.20;;;8.07;;
73428;SDS011;61643;49.564;17.412;2023-04-24T07:53:59;12.43;;;7.78;;
73428;SDS011;61643;49.564;17.412;2023-04-24T07:56:25;10.90;;;6.72;;
73428;SDS011;61643;49.564;17.412;2023-04-24T07:58:51;8.82;;;5.68;;
73428;SDS011;61643;49.564;17.412;2023-04-24T08:01:16;10.13;;;6.55;;
73428;SDS011;61643;49.564;17.412;2023-04-24T08:03:42;8.50;;;5.70;;
73428;SDS011;61643;49.564;17.412;2023-04-24T08:06:08;19.48;;;10.00;;
73428;SDS011;61643;49.564;17.412;2023-04-24T08:08:34;15.52;;;8.43;;
73428;SDS011;61643;49.564;17.412;2023-04-24T08:11:00;13.02;;;7.30;;
73428;SDS011;61643;49.564;17.412;2023-04-24T08:13:26;11.93;;;8.05;;
73428;SDS011;61643;49.564;17.412;2023-04-24T08:15:52;13.30;;;6.82;;
73428;SDS011;61643;49.564;17.412;2023-04-24T08:18:18;8.05;;;6.50;;
73428;SDS011;61643;49.564;17.412;2023-04-24T08:20:44;7.75;;;6.32;;
73428;SDS011;61643;49.564;17.412;2023-04-24T08:23:10;10.90;;;7.03;;
73428;SDS011;61643;49.564;17.412;2023-04-24T08:25:36;10.90;;;7.65;;
73428;SDS011;61643;49.564;17.412;2023-04-24T08:28:03;12.13;;;7.55;;
73428;SDS011;61643;49.564;17.412;2023-04-24T08:30:31;8.90;;;6.85;;
73428;SDS011;61643;49.564;17.412;2023-04-24T08:32:57;10.02;;;6.85;;
73428;SDS011;61643;49.564;17.412;2023-04-24T08:35:23;10.25;;;7.65;;
73428;SDS011;61643;49.564;17.412;2023-04-24T08:37:49;11.82;;;7.95;;
73428;SDS011;61643;49.564;17.412;2023-04-24T08:40:16;11.77;;;7.80;;
73428;SDS011;61643;49.564;17.412;2023-04-24T08:42:42;13.27;;;7.88;;
73428;SDS011;61643;49.564;17.412;2023-04-24T08:45:10;10.32;;;6.18;;
73428;SDS011;61643;49.564;17.412;2023-04-24T08:47:38;8.55;;;6.82;;
73428;SDS011;61643;49.564;17.412;2023-04-24T08:50:05;10.65;;;6.88;;
73428;SDS011;61643;49.564;17.412;2023-04-24T08:52:33;10.40;;;7.10;;
73428;SDS011;61643;49.564;17.412;2023-04-24T08:55:00;8.52;;;6.47;;
73428;SDS011;61643;49.564;17.412;2023-04-24T08:57:27;9.88;;;6.97;;
73428;SDS011;61643;49.564;17.412;2023-04-24T08:59:53;8.90;;;6.57;;
73428;SDS011;61643;49.564;17.412;2023-04-24T09:02:20;8.85;;;6.55;;
73428;SDS011;61643;49.564;17.412;2023-04-24T09:04:48;7.88;;;5.68;;
73428;SDS011;61643;49.564;17.412;2023-04-24T09:07:16;9.27;;;6.18;;
73428;SDS011;61643;49.564;17.412;2023-04-24T09:09:43;8.35;;;5.93;;
73428;SDS011;61643;49.564;17.412;2023-04-24T09:12:10;10.75;;;7.03;;
73428;SDS011;61643;49.564;17.412;2023-04-24T09:14:37;12.65;;;6.75;;
73428;SDS011;61643;49.564;17.412;2023-04-24T09:17:10;11.70;;;6.82;;
73428;SDS011;61643;49.564;17.412;2023-04-24T09:19:37;11.52;;;7.35;;
73428;SDS011;61643;49.564;17.412;2023-04-24T09:22:06;11.52;;;7.25;;
73428;SDS011;61643;49.564;17.412;2023-04-24T09:24:33;13.57;;;8.35;;
73428;SDS011;61643;49.564;17.412;2023-04-24T09:27:00;11.60;;;8.18;;
73428;SDS011;61643;49.564;17.412;2023-04-24T09:29:27;10.85;;;7.85;;
73428;SDS011;61643;49.564;17.412;2023-04-24T09:31:53;11.20;;;7.47;;
73428;SDS011;61643;49.564;17.412;2023-04-24T09:34:23;11.70;;;8.63;;
73428;SDS011;61643;49.564;17.412;2023-04-24T09:36:50;11.50;;;8.15;;
73428;SDS011;61643;49.564;17.412;2023-04-24T09:39:17;11.25;;;8.23;;
73428;SDS011;61643;49.564;17.412;2023-04-24T09:41:46;13.80;;;8.20;;
73428;SDS011;61643;49.564;17.412;2023-04-24T09:44:22;14.57;;;8.02;;
73428;SDS011;61643;49.564;17.412;2023-04-24T09:46:56;10.13;;;7.85;;
73428;SDS011;61643;49.564;17.412;2023-04-24T09:51:50;12.70;;;8.65;;
73428;SDS011;61643;49.564;17.412;2023-04-24T09:54:17;13.73;;;9.13;;
73428;SDS011;61643;49.564;17.412;2023-04-24T09:56:47;13.57;;;8.73;;
73428;SDS011;61643;49.564;17.412;2023-04-24T09:59:15;11.68;;;8.55;;
73428;SDS011;61643;49.564;17.412;2023-04-24T10:01:42;13.25;;;9.07;;
73428;SDS011;61643;49.564;17.412;2023-04-24T10:04:16;13.27;;;8.93;;
73428;SDS011;61643;49.564;17.412;2023-04-24T10:06:47;11.82;;;7.97;;
73428;SDS011;61643;49.564;17.412;2023-04-24T10:09:20;12.88;;;8.48;;
73428;SDS011;61643;49.564;17.412;2023-04-24T10:11:48;11.60;;;8.45;;
73428;SDS011;61643;49.564;17.412;2023-04-24T10:16:42;11.02;;;7.78;;
73428;SDS011;61643;49.564;17.412;2023-04-24T10:19:09;14.73;;;8.45;;
73428;SDS011;61643;49.564;17.412;2023-04-24T10:21:36;11.40;;;8.13;;
73428;SDS011;61643;49.564;17.412;2023-04-24T10:24:08;13.18;;;8.38;;
73428;SDS011;61643;49.564;17.412;2023-04-24T10:26:35;12.88;;;8.27;;
73428;SDS011;61643;49.564;17.412;2023-04-24T10:29:03;12.60;;;8.68;;
73428;SDS011;61643;49.564;17.412;2023-04-24T10:31:35;10.02;;;7.60;;
73428;SDS011;61643;49.564;17.412;2023-04-24T10:34:02;11.07;;;7.35;;
73428;SDS011;61643;49.564;17.412;2023-04-24T10:36:33;13.07;;;8.60;;
73428;SDS011;61643;49.564;17.412;2023-04-24T10:39:02;8.45;;;6.75;;
73428;SDS011;61643;49.564;17.412;2023-04-24T10:41:32;11.82;;;8.35;;
73428;SDS011;61643;49.564;17.412;2023-04-24T10:44:05;10.63;;;7.40;;
73428;SDS011;61643;49.564;17.412;2023-04-24T10:46:32;10.18;;;7.30;;
73428;SDS011;61643;49.564;17.412;2023-04-24T10:48:58;12.77;;;8.23;;
73428;SDS011;61643;49.564;17.412;2023-04-24T10:51:26;10.93;;;7.97;;
73428;SDS011;61643;49.564;17.412;2023-04-24T10:59:51;11.73;;;8.27;;
73428;SDS011;61643;49.564;17.412;2023-04-24T11:02:37;11.55;;;8.15;;
73428;SDS011;61643;49.564;17.412;2023-04-24T11:05:06;11.45;;;7.78;;
73428;SDS011;61643;49.564;17.412;2023-04-24T11:10:28;11.70;;;8.23;;
73428;SDS011;61643;49.564;17.412;2023-04-24T11:12:54;14.68;;;9.00;;
73428;SDS011;61643;49.564;17.412;2023-04-24T11:15:20;14.45;;;8.63;;
73428;SDS011;61643;49.564;17.412;2023-04-24T11:17:47;11.50;;;7.97;;
73428;SDS011;61643;49.564;17.412;2023-04-24T11:20:16;10.68;;;7.80;;
73428;SDS011;61643;49.564;17.412;2023-04-24T11:22:43;10.20;;;7.68;;
73428;SDS011;61643;49.564;17.412;2023-04-24T11:25:09;14.73;;;8.10;;
73428;SDS011;61643;49.564;17.412;2023-04-24T11:27:41;12.25;;;9.07;;
73428;SDS011;61643;49.564;17.412;2023-04-24T11:30:09;13.63;;;8.77;;
73428;SDS011;61643;49.564;17.412;2023-04-24T11:32:40;13.40;;;9.60;;
73428;SDS011;61643;49.564;17.412;2023-04-24T11:35:15;15.18;;;9.18;;
73428;SDS011;61643;49.564;17.412;2023-04-24T11:37:47;12.50;;;8.88;;
73428;SDS011;61643;49.564;17.412;2023-04-24T11:40:17;13.95;;;8.45;;
73428;SDS011;61643;49.564;17.412;2023-04-24T11:42:51;11.68;;;8.70;;
73428;SDS011;61643;49.564;17.412;2023-04-24T11:47:50;12.88;;;8.95;;
73428;SDS011;61643;49.564;17.412;2023-04-24T11:50:17;12.00;;;8.45;;
73428;SDS011;61643;49.564;17.412;2023-04-24T11:52:45;15.10;;;8.88;;
73428;SDS011;61643;49.564;17.412;2023-04-24T11:57:48;12.93;;;8.88;;
73428;SDS011;61643;49.564;17.412;2023-04-24T12:00:16;14.73;;;9.63;;
73428;SDS011;61643;49.564;17.412;2023-04-24T12:02:44;11.68;;;8.90;;
73428;SDS011;61643;49.564;17.412;2023-04-24T12:05:23;20.08;;;10.15;;
73428;SDS011;61643;49.564;17.412;2023-04-24T12:07:51;14.07;;;9.70;;
73428;SDS011;61643;49.564;17.412;2023-04-24T12:10:21;18.00;;;9.77;;
73428;SDS011;61643;49.564;17.412;2023-04-24T12:12:51;14.25;;;10.20;;
73428;SDS011;61643;49.564;17.412;2023-04-24T12:15:21;15.18;;;10.35;;
73428;SDS011;61643;49.564;17.412;2023-04-24T12:17:47;15.90;;;9.70;;
73428;SDS011;61643;49.564;17.412;2023-04-24T12:20:16;16.88;;;9.85;;
73428;SDS011;61643;49.564;17.412;2023-04-24T12:22:55;13.25;;;9.35;;
73428;SDS011;61643;49.564;17.412;2023-04-24T12:25:23;15.65;;;9.30;;
73428;SDS011;61643;49.564;17.412;2023-04-24T12:30:29;33.75;;;16.30;;
73428;SDS011;61643;49.564;17.412;2023-04-24T12:32:59;16.10;;;9.95;;
73428;SDS011;61643;49.564;17.412;2023-04-24T12:35:29;14.95;;;9.05;;
73428;SDS011;61643;49.564;17.412;2023-04-24T12:40:34;15.75;;;10.45;;
73428;SDS011;61643;49.564;17.412;2023-04-24T12:43:00;16.92;;;11.32;;
73428;SDS011;61643;49.564;17.412;2023-04-24T12:45:26;13.77;;;9.32;;
73428;SDS011;61643;49.564;17.412;2023-04-24T12:47:53;12.93;;;9.32;;
73428;SDS011;61643;49.564;17.412;2023-04-24T12:50:19;12.93;;;8.45;;
73428;SDS011;61643;49.564;17.412;2023-04-24T12:52:45;11.75;;;8.20;;
73428;SDS011;61643;49.564;17.412;2023-04-24T12:55:11;14.10;;;8.25;;
73428;SDS011;61643;49.564;17.412;2023-04-24T12:57:38;11.55;;;8.45;;
73428;SDS011;61643;49.564;17.412;2023-04-24T13:00:06;12.38;;;7.97;;
73428;SDS011;61643;49.564;17.412;2023-04-24T13:02:33;12.98;;;8.65;;
73428;SDS011;61643;49.564;17.412;2023-04-24T13:05:00;13.20;;;8.05;;
73428;SDS011;61643;49.564;17.412;2023-04-24T13:07:27;13.32;;;8.02;;
73428;SDS011;61643;49.564;17.412;2023-04-24T13:09:54;10.82;;;8.00;;
73428;SDS011;61643;49.564;17.412;2023-04-24T13:12:21;12.00;;;7.70;;
73428;SDS011;61643;49.564;17.412;2023-04-24T13:14:49;13.32;;;8.77;;
73428;SDS011;61643;49.564;17.412;2023-04-24T13:17:15;10.80;;;8.57;;
73428;SDS011;61643;49.564;17.412;2023-04-24T13:19:41;12.07;;;8.65;;
73428;SDS011;61643;49.564;17.412;2023-04-24T13:22:09;17.35;;;8.80;;
73428;SDS011;61643;49.564;17.412;2023-04-24T13:24:36;13.02;;;8.63;;
73428;SDS011;61643;49.564;17.412;2023-04-24T13:27:03;11.68;;;9.00;;
73428;SDS011;61643;49.564;17.412;2023-04-24T13:29:29;15.00;;;9.43;;
73428;SDS011;61643;49.564;17.412;2023-04-24T13:31:55;14.98;;;10.10;;
73428;SDS011;61643;49.564;17.412;2023-04-24T13:34:22;16.42;;;10.20;;
73428;SDS011;61643;49.564;17.412;2023-04-24T13:36:49;19.15;;;11.10;;
73428;SDS011;61643;49.564;17.412;2023-04-24T13:39:16;17.20;;;10.55;;
73428;SDS011;61643;49.564;17.412;2023-04-24T13:41:42;18.00;;;11.75;;
73428;SDS011;61643;49.564;17.412;2023-04-24T13:44:09;18.88;;;11.30;;
73428;SDS011;61643;49.564;17.412;2023-04-24T13:46:35;18.05;;;11.60;;
73428;SDS011;61643;49.564;17.412;2023-04-24T13:49:01;16.85;;;10.73;;
73428;SDS011;61643;49.564;17.412;2023-04-24T13:53:55;16.38;;;10.35;;
73428;SDS011;61643;49.564;17.412;2023-04-24T13:56:21;16.40;;;10.75;;
73428;SDS011;61643;49.564;17.412;2023-04-24T13:58:47;15.98;;;10.65;;
73428;SDS011;61643;49.564;17.412;2023-04-24T14:01:14;16.95;;;10.82;;
73428;SDS011;61643;49.564;17.412;2023-04-24T14:03:41;15.35;;;10.80;;
73428;SDS011;61643;49.564;17.412;2023-04-24T14:06:08;17.80;;;11.43;;
73428;SDS011;61643;49.564;17.412;2023-04-24T14:08:34;18.27;;;11.18;;
73428;SDS011;61643;49.564;17.412;2023-04-24T14:11:00;17.35;;;11.02;;
73428;SDS011;61643;49.564;17.412;2023-04-24T14:13:26;17.77;;;10.93;;
73428;SDS011;61643;49.564;17.412;2023-04-24T14:15:53;17.67;;;11.70;;
73428;SDS011;61643;49.564;17.412;2023-04-24T14:18:19;14.68;;;10.40;;
73428;SDS011;61643;49.564;17.412;2023-04-24T14:20:45;14.25;;;9.55;;
73428;SDS011;61643;49.564;17.412;2023-04-24T14:23:11;15.70;;;9.45;;
73428;SDS011;61643;49.564;17.412;2023-04-24T14:25:37;13.30;;;9.57;;
73428;SDS011;61643;49.564;17.412;2023-04-24T14:28:03;12.98;;;9.40;;
73428;SDS011;61643;49.564;17.412;2023-04-24T14:30:29;12.82;;;8.65;;
73428;SDS011;61643;49.564;17.412;2023-04-24T14:32:55;12.45;;;8.57;;
73428;SDS011;61643;49.564;17.412;2023-04-24T14:35:21;13.00;;;8.73;;
73428;SDS011;61643;49.564;17.412;2023-04-24T14:37:47;14.65;;;8.98;;
73428;SDS011;61643;49.564;17.412;2023-04-24T14:40:14;11.95;;;8.95;;
73428;SDS011;61643;49.564;17.412;2023-04-24T14:42:40;26.10;;;13.13;;
73428;SDS011;61643;49.564;17.412;2023-04-24T14:45:06;11.32;;;8.10;;
73428;SDS011;61643;49.564;17.412;2023-04-24T14:47:33;10.35;;;7.25;;
73428;SDS011;61643;49.564;17.412;2023-04-24T14:49:59;11.55;;;7.80;;